sensor_id;sensor_type;location;lat;lon;timestamp;pressure;altitude;pressure_sealevel;temperature;humidity
23059;BME280;30585;51.502;7.218;2022-12-16T00:01:07;92474.13;;;-147.26;89.19
23059;BME280;30585;51.502;7.218;2022-12-16T00:03:36;92419.09;;;-147.26;88.76
23059;BME280;30585;51.502;7.218;2022-12-16T00:06:06;92482.28;;;-147.26;89.18
23059;BME280;30585;51.502;7.218;2022-12-16T00:08:35;92516.91;;;-147.26;88.74
23059;BME280;30585;51.502;7.218;2022-12-16T00:11:05;92496.53;;;-147.26;89.39
23059;BME280;30585;51.502;7.218;2022-12-16T00:13:35;92476.16;;;-147.26;89.90
23059;BME280;30585;51.502;7.218;2022-12-16T00:16:03;92527.09;;;-147.26;90.52
23059;BME280;30585;51.502;7.218;2022-12-16T00:18:33;92480.25;;;-147.26;90.79
23059;BME280;30585;51.502;7.218;2022-12-16T00:21:01;92492.47;;;-147.26;91.56
23059;BME280;30585;51.502;7.218;2022-12-16T00:23:29;92478.19;;;-147.26;91.67
23059;BME280;30585;51.502;7.218;2022-12-16T00:25:58;92380.38;;;-147.26;92.08
23059;BME280;30585;51.502;7.218;2022-12-16T00:28:26;92494.50;;;-147.26;92.14
23059;BME280;30585;51.502;7.218;2022-12-16T00:30:54;92494.50;;;-147.26;92.04
23059;BME280;30585;51.502;7.218;2022-12-16T00:33:24;92508.75;;;-147.26;92.31
23059;BME280;30585;51.502;7.218;2022-12-16T00:35:53;92518.94;;;-147.26;92.41
23059;BME280;30585;51.502;7.218;2022-12-16T00:40:49;92502.66;;;-147.26;92.49
23059;BME280;30585;51.502;7.218;2022-12-16T00:43:17;92453.75;;;-147.26;92.11
23059;BME280;30585;51.502;7.218;2022-12-16T00:45:46;92468.00;;;-147.26;92.04
23059;BME280;30585;51.502;7.218;2022-12-16T00:48:14;92500.63;;;-147.26;91.83
23059;BME280;30585;51.502;7.218;2022-12-16T00:50:43;92514.88;;;-147.26;91.89
23059;BME280;30585;51.502;7.218;2022-12-16T00:53:13;92510.81;;;-147.26;91.98
23059;BME280;30585;51.502;7.218;2022-12-16T00:55:42;92535.25;;;-147.26;92.06
23059;BME280;30585;51.502;7.218;2022-12-16T00:58:09;92498.56;;;-147.26;92.49
23059;BME280;30585;51.502;7.218;2022-12-16T01:00:37;92490.44;;;-147.26;92.41
23059;BME280;30585;51.502;7.218;2022-12-16T01:03:05;92494.50;;;-147.26;92.73
23059;BME280;30585;51.502;7.218;2022-12-16T01:05:33;92510.81;;;-147.26;93.25
23059;BME280;30585;51.502;7.218;2022-12-16T01:08:00;92504.69;;;-147.26;93.40
23059;BME280;30585;51.502;7.218;2022-12-16T01:10:29;92508.75;;;-147.26;93.25
23059;BME280;30585;51.502;7.218;2022-12-16T01:12:57;92523.03;;;-147.26;93.74
23059;BME280;30585;51.502;7.218;2022-12-16T01:15:25;92498.56;;;-147.26;93.68
23059;BME280;30585;51.502;7.218;2022-12-16T01:17:52;92429.28;;;-147.26;93.87
23059;BME280;30585;51.502;7.218;2022-12-16T01:20:20;92494.50;;;-147.26;93.91
23059;BME280;30585;51.502;7.218;2022-12-16T01:22:48;92482.28;;;-147.26;94.16
23059;BME280;30585;51.502;7.218;2022-12-16T01:25:16;92461.91;;;-147.26;94.18
23059;BME280;30585;51.502;7.218;2022-12-16T01:27:45;92502.66;;;-147.26;94.47
23059;BME280;30585;51.502;7.218;2022-12-16T01:30:13;92494.50;;;-147.26;94.58
23059;BME280;30585;51.502;7.218;2022-12-16T01:32:40;92496.53;;;-147.26;94.43
23059;BME280;30585;51.502;7.218;2022-12-16T01:35:08;92516.91;;;-147.26;94.69
23059;BME280;30585;51.502;7.218;2022-12-16T01:37:56;92502.66;;;-147.26;94.62
23059;BME280;30585;51.502;7.218;2022-12-16T01:40:24;92476.16;;;-147.26;94.72
23059;BME280;30585;51.502;7.218;2022-12-16T01:42:53;92535.25;;;-147.26;94.96
23059;BME280;30585;51.502;7.218;2022-12-16T01:45:31;92506.72;;;-147.26;94.96
23059;BME280;30585;51.502;7.218;2022-12-16T01:48:02;92504.69;;;-147.26;94.57
23059;BME280;30585;51.502;7.218;2022-12-16T01:50:34;92484.31;;;-147.26;94.59
23059;BME280;30585;51.502;7.218;2022-12-16T01:53:03;92500.63;;;-147.26;94.36
23059;BME280;30585;51.502;7.218;2022-12-16T01:55:36;92465.97;;;-147.26;94.33
23059;BME280;30585;51.502;7.218;2022-12-16T01:58:10;92525.06;;;-147.26;94.34
23059;BME280;30585;51.502;7.218;2022-12-16T02:00:39;92488.38;;;-147.26;94.17
23059;BME280;30585;51.502;7.218;2022-12-16T02:03:08;92474.13;;;-147.26;93.97
23059;BME280;30585;51.502;7.218;2022-12-16T02:05:39;92667.72;;;-147.26;94.04
23059;BME280;30585;51.502;7.218;2022-12-16T02:08:11;92514.88;;;-147.26;93.78
23059;BME280;30585;51.502;7.218;2022-12-16T02:10:50;92508.75;;;-147.26;93.34
23059;BME280;30585;51.502;7.218;2022-12-16T02:13:26;92476.16;;;-147.26;92.97
23059;BME280;30585;51.502;7.218;2022-12-16T02:16:05;92470.06;;;-147.26;92.85
23059;BME280;30585;51.502;7.218;2022-12-16T02:18:48;92478.19;;;-147.26;92.31
23059;BME280;30585;51.502;7.218;2022-12-16T02:28:02;92545.44;;;-147.26;91.87
23059;BME280;30585;51.502;7.218;2022-12-16T02:31:00;92527.09;;;-147.26;91.67
23059;BME280;30585;51.502;7.218;2022-12-16T02:33:45;92470.06;;;-147.26;91.47
23059;BME280;30585;51.502;7.218;2022-12-16T02:36:23;92506.72;;;-147.26;91.09
23059;BME280;30585;51.502;7.218;2022-12-16T02:38:56;92470.06;;;-147.26;91.11
23059;BME280;30585;51.502;7.218;2022-12-16T02:41:32;92525.06;;;-147.26;91.03
23059;BME280;30585;51.502;7.218;2022-12-16T02:44:03;92504.69;;;-147.26;90.74
23059;BME280;30585;51.502;7.218;2022-12-16T02:46:39;92425.22;;;-147.26;90.86
23059;BME280;30585;51.502;7.218;2022-12-16T02:49:37;92498.56;;;-147.26;90.16
23059;BME280;30585;51.502;7.218;2022-12-16T02:51:58;92523.03;;;-147.26;89.37
23059;BME280;30585;51.502;7.218;2022-12-16T02:54:27;92449.69;;;-147.26;89.60
23059;BME280;30585;51.502;7.218;2022-12-16T02:57:05;92490.44;;;-147.26;89.41
23059;BME280;30585;51.502;7.218;2022-12-16T02:59:43;92510.81;;;-147.26;89.81
23059;BME280;30585;51.502;7.218;2022-12-16T03:02:21;92490.44;;;-147.26;89.59
23059;BME280;30585;51.502;7.218;2022-12-16T03:04:53;92451.72;;;-147.26;89.56
23059;BME280;30585;51.502;7.218;2022-12-16T03:07:26;92447.63;;;-147.26;89.55
23059;BME280;30585;51.502;7.218;2022-12-16T03:09:57;92498.56;;;-147.26;89.38
23059;BME280;30585;51.502;7.218;2022-12-16T03:12:26;92404.84;;;-147.26;89.40
23059;BME280;30585;51.502;7.218;2022-12-16T03:14:54;92480.25;;;-147.26;89.20
23059;BME280;30585;51.502;7.218;2022-12-16T03:17:24;92498.56;;;-147.26;89.42
23059;BME280;30585;51.502;7.218;2022-12-16T03:19:58;92490.44;;;-147.26;89.50
23059;BME280;30585;51.502;7.218;2022-12-16T03:22:31;92514.88;;;-147.26;89.15
23059;BME280;30585;51.502;7.218;2022-12-16T03:25:01;92527.09;;;-147.26;89.13
23059;BME280;30585;51.502;7.218;2022-12-16T03:27:34;92480.25;;;-147.26;89.32
23059;BME280;30585;51.502;7.218;2022-12-16T03:30:09;92525.06;;;-147.26;89.44
23059;BME280;30585;51.502;7.218;2022-12-16T03:32:47;92508.75;;;-147.26;88.87
23059;BME280;30585;51.502;7.218;2022-12-16T03:35:19;92476.16;;;-147.26;89.22
23059;BME280;30585;51.502;7.218;2022-12-16T03:37:51;92502.66;;;-147.26;89.02
23059;BME280;30585;51.502;7.218;2022-12-16T03:40:21;92518.94;;;-147.26;89.16
23059;BME280;30585;51.502;7.218;2022-12-16T03:42:50;92529.16;;;-147.26;89.13
23059;BME280;30585;51.502;7.218;2022-12-16T03:45:22;92512.84;;;-147.26;88.54
23059;BME280;30585;51.502;7.218;2022-12-16T03:47:55;92502.66;;;-147.26;88.58
23059;BME280;30585;51.502;7.218;2022-12-16T03:50:26;92478.19;;;-147.26;88.57
23059;BME280;30585;51.502;7.218;2022-12-16T03:52:54;92457.81;;;-147.26;88.66
23059;BME280;30585;51.502;7.218;2022-12-16T03:55:22;92488.38;;;-147.26;88.65
23059;BME280;30585;51.502;7.218;2022-12-16T03:57:49;92523.03;;;-147.26;88.79
23059;BME280;30585;51.502;7.218;2022-12-16T04:00:17;92533.22;;;-147.26;88.82
23059;BME280;30585;51.502;7.218;2022-12-16T04:02:45;92394.66;;;-147.26;88.36
23059;BME280;30585;51.502;7.218;2022-12-16T04:05:16;92500.63;;;-147.26;88.35
23059;BME280;30585;51.502;7.218;2022-12-16T04:07:44;92523.03;;;-147.26;88.54
23059;BME280;30585;51.502;7.218;2022-12-16T04:10:11;92500.63;;;-147.26;88.50
23059;BME280;30585;51.502;7.218;2022-12-16T04:12:39;92510.81;;;-147.26;88.70
23059;BME280;30585;51.502;7.218;2022-12-16T04:15:25;92457.81;;;-147.26;88.50
23059;BME280;30585;51.502;7.218;2022-12-16T04:18:13;92543.41;;;-147.26;88.99
23059;BME280;30585;51.502;7.218;2022-12-16T04:21:00;92474.13;;;-147.26;88.89
23059;BME280;30585;51.502;7.218;2022-12-16T04:23:48;92514.88;;;-147.26;88.42
23059;BME280;30585;51.502;7.218;2022-12-16T04:26:35;92518.94;;;-147.26;88.39
23059;BME280;30585;51.502;7.218;2022-12-16T04:29:23;92523.03;;;-147.26;88.06
23059;BME280;30585;51.502;7.218;2022-12-16T04:31:51;92527.09;;;-147.26;88.23
23059;BME280;30585;51.502;7.218;2022-12-16T04:34:19;92506.72;;;-147.26;88.10
23059;BME280;30585;51.502;7.218;2022-12-16T04:36:54;92531.19;;;-147.26;88.00
23059;BME280;30585;51.502;7.218;2022-12-16T04:39:40;92518.94;;;-147.26;88.02
23059;BME280;30585;51.502;7.218;2022-12-16T04:42:25;92400.78;;;-147.26;88.45
23059;BME280;30585;51.502;7.218;2022-12-16T04:45:11;92413.00;;;-147.26;88.79
23059;BME280;30585;51.502;7.218;2022-12-16T04:47:56;92490.44;;;-147.26;88.72
23059;BME280;30585;51.502;7.218;2022-12-16T04:50:42;92518.94;;;-147.26;88.67
23059;BME280;30585;51.502;7.218;2022-12-16T04:53:29;92482.28;;;-147.26;88.64
23059;BME280;30585;51.502;7.218;2022-12-16T04:56:14;92498.56;;;-147.26;88.67
23059;BME280;30585;51.502;7.218;2022-12-16T04:59:00;92521.00;;;-147.26;88.53
23059;BME280;30585;51.502;7.218;2022-12-16T05:01:45;92490.44;;;-147.26;89.38
23059;BME280;30585;51.502;7.218;2022-12-16T05:04:30;92539.34;;;-147.26;89.13
23059;BME280;30585;51.502;7.218;2022-12-16T05:07:16;92474.13;;;-147.26;89.51
23059;BME280;30585;51.502;7.218;2022-12-16T05:10:06;92539.34;;;-147.26;89.81
23059;BME280;30585;51.502;7.218;2022-12-16T05:12:52;92512.84;;;-147.26;90.45
23059;BME280;30585;51.502;7.218;2022-12-16T05:15:38;92510.81;;;-147.26;90.39
23059;BME280;30585;51.502;7.218;2022-12-16T05:18:23;92488.38;;;-147.26;90.21
23059;BME280;30585;51.502;7.218;2022-12-16T05:21:09;92500.63;;;-147.26;89.72
23059;BME280;30585;51.502;7.218;2022-12-16T05:24:06;92449.69;;;-147.26;89.53
23059;BME280;30585;51.502;7.218;2022-12-16T05:26:52;92537.28;;;-147.26;89.96
23059;BME280;30585;51.502;7.218;2022-12-16T05:29:38;92521.00;;;-147.26;89.63
23059;BME280;30585;51.502;7.218;2022-12-16T05:32:23;92494.50;;;-147.26;90.30
23059;BME280;30585;51.502;7.218;2022-12-16T05:35:08;92474.13;;;-147.26;89.66
23059;BME280;30585;51.502;7.218;2022-12-16T05:37:53;92500.63;;;-147.26;89.42
23059;BME280;30585;51.502;7.218;2022-12-16T05:40:39;92518.94;;;-147.26;89.45
23059;BME280;30585;51.502;7.218;2022-12-16T05:43:25;92537.28;;;-147.26;88.92
23059;BME280;30585;51.502;7.218;2022-12-16T05:46:11;92512.84;;;-147.26;89.05
23059;BME280;30585;51.502;7.218;2022-12-16T05:48:56;92453.75;;;-147.26;88.96
23059;BME280;30585;51.502;7.218;2022-12-16T05:51:42;92531.19;;;-147.26;88.89
23059;BME280;30585;51.502;7.218;2022-12-16T05:54:27;92482.28;;;-147.26;88.61
23059;BME280;30585;51.502;7.218;2022-12-16T05:57:13;92492.47;;;-147.26;88.12
23059;BME280;30585;51.502;7.218;2022-12-16T05:59:59;92465.97;;;-147.26;87.99
23059;BME280;30585;51.502;7.218;2022-12-16T06:02:45;92453.75;;;-147.26;88.24
23059;BME280;30585;51.502;7.218;2022-12-16T06:05:30;92482.28;;;-147.26;88.50
23059;BME280;30585;51.502;7.218;2022-12-16T06:08:15;92508.75;;;-147.26;89.20
23059;BME280;30585;51.502;7.218;2022-12-16T06:11:01;92482.28;;;-147.26;89.31
23059;BME280;30585;51.502;7.218;2022-12-16T06:13:46;92490.44;;;-147.26;89.32
23059;BME280;30585;51.502;7.218;2022-12-16T06:16:32;92459.88;;;-147.26;89.85
23059;BME280;30585;51.502;7.218;2022-12-16T06:19:18;92476.16;;;-147.26;90.43
23059;BME280;30585;51.502;7.218;2022-12-16T06:22:03;92490.44;;;-147.26;90.47
23059;BME280;30585;51.502;7.218;2022-12-16T06:24:49;92488.38;;;-147.26;90.59
23059;BME280;30585;51.502;7.218;2022-12-16T06:27:34;92514.88;;;-147.26;90.02
23059;BME280;30585;51.502;7.218;2022-12-16T06:30:19;92392.63;;;-147.26;89.77
23059;BME280;30585;51.502;7.218;2022-12-16T06:33:06;92474.13;;;-147.26;89.37
23059;BME280;30585;51.502;7.218;2022-12-16T06:35:51;92498.56;;;-147.26;89.15
23059;BME280;30585;51.502;7.218;2022-12-16T06:38:36;92514.88;;;-147.26;88.66
23059;BME280;30585;51.502;7.218;2022-12-16T06:41:21;92486.34;;;-147.26;88.99
23059;BME280;30585;51.502;7.218;2022-12-16T06:44:06;92490.44;;;-147.26;89.34
23059;BME280;30585;51.502;7.218;2022-12-16T06:46:52;92437.44;;;-147.26;89.42
23059;BME280;30585;51.502;7.218;2022-12-16T06:49:38;92490.44;;;-147.26;89.03
23059;BME280;30585;51.502;7.218;2022-12-16T06:52:23;92484.31;;;-147.26;89.32
23059;BME280;30585;51.502;7.218;2022-12-16T06:55:22;92510.81;;;-147.26;89.35
23059;BME280;30585;51.502;7.218;2022-12-16T06:58:08;92413.00;;;-147.26;89.39
23059;BME280;30585;51.502;7.218;2022-12-16T07:00:53;92498.56;;;-147.26;89.81
23059;BME280;30585;51.502;7.218;2022-12-16T07:03:38;92506.72;;;-147.26;89.68
23059;BME280;30585;51.502;7.218;2022-12-16T07:06:25;92421.16;;;-147.26;89.30
23059;BME280;30585;51.502;7.218;2022-12-16T07:09:11;92465.97;;;-147.26;89.41
23059;BME280;30585;51.502;7.218;2022-12-16T07:11:56;92470.06;;;-147.26;89.63
23059;BME280;30585;51.502;7.218;2022-12-16T07:14:41;92498.56;;;-147.26;89.75
23059;BME280;30585;51.502;7.218;2022-12-16T07:17:27;92488.38;;;-147.26;89.96
23059;BME280;30585;51.502;7.218;2022-12-16T07:20:12;92508.75;;;-147.26;89.61
23059;BME280;30585;51.502;7.218;2022-12-16T07:22:59;92421.16;;;-147.26;89.43
23059;BME280;30585;51.502;7.218;2022-12-16T07:25:45;92459.88;;;-147.26;89.60
23059;BME280;30585;51.502;7.218;2022-12-16T07:28:30;92502.66;;;-147.26;89.70
23059;BME280;30585;51.502;7.218;2022-12-16T07:31:16;92490.44;;;-147.26;89.62
23059;BME280;30585;51.502;7.218;2022-12-16T07:34:01;92539.34;;;-147.26;89.66
23059;BME280;30585;51.502;7.218;2022-12-16T07:36:46;92508.75;;;-147.26;90.26
23059;BME280;30585;51.502;7.218;2022-12-16T07:39:33;92447.63;;;-147.26;90.61
23059;BME280;30585;51.502;7.218;2022-12-16T07:42:21;92490.44;;;-147.26;90.43
23059;BME280;30585;51.502;7.218;2022-12-16T07:45:07;92474.13;;;-147.26;90.47
23059;BME280;30585;51.502;7.218;2022-12-16T07:47:52;92457.81;;;-147.26;90.48
23059;BME280;30585;51.502;7.218;2022-12-16T07:50:38;92429.28;;;-147.26;90.02
23059;BME280;30585;51.502;7.218;2022-12-16T07:53:23;92476.16;;;-147.26;90.10
23059;BME280;30585;51.502;7.218;2022-12-16T07:56:10;92492.47;;;-147.26;90.47
23059;BME280;30585;51.502;7.218;2022-12-16T07:58:55;92494.50;;;-147.26;90.45
23059;BME280;30585;51.502;7.218;2022-12-16T08:01:41;92502.66;;;-147.26;90.33
23059;BME280;30585;51.502;7.218;2022-12-16T08:04:27;92429.28;;;-147.26;90.69
23059;BME280;30585;51.502;7.218;2022-12-16T08:07:12;92531.19;;;-147.26;90.84
23059;BME280;30585;51.502;7.218;2022-12-16T08:09:57;92402.81;;;-147.26;91.44
23059;BME280;30585;51.502;7.218;2022-12-16T08:12:44;92439.47;;;-147.26;91.44
23059;BME280;30585;51.502;7.218;2022-12-16T08:15:29;92496.53;;;-147.26;92.19
23059;BME280;30585;51.502;7.218;2022-12-16T08:18:14;92506.72;;;-147.26;91.95
23059;BME280;30585;51.502;7.218;2022-12-16T08:20:59;92468.00;;;-147.26;92.44
23059;BME280;30585;51.502;7.218;2022-12-16T08:23:44;92516.91;;;-147.26;92.70
23059;BME280;30585;51.502;7.218;2022-12-16T08:26:30;92508.75;;;-147.26;92.88
23059;BME280;30585;51.502;7.218;2022-12-16T08:29:16;92500.63;;;-147.26;93.31
23059;BME280;30585;51.502;7.218;2022-12-16T08:32:10;92518.94;;;-147.26;93.60
23059;BME280;30585;51.502;7.218;2022-12-16T08:34:55;92494.50;;;-147.26;93.98
23059;BME280;30585;51.502;7.218;2022-12-16T08:37:40;92421.16;;;-147.26;93.92
23059;BME280;30585;51.502;7.218;2022-12-16T08:40:25;92468.00;;;-147.26;94.10
23059;BME280;30585;51.502;7.218;2022-12-16T08:43:11;92445.59;;;-147.26;94.02
23059;BME280;30585;51.502;7.218;2022-12-16T08:45:58;92488.38;;;-147.26;94.29
23059;BME280;30585;51.502;7.218;2022-12-16T08:48:58;92496.53;;;-147.26;94.24
23059;BME280;30585;51.502;7.218;2022-12-16T08:51:43;92415.03;;;-147.26;94.54
23059;BME280;30585;51.502;7.218;2022-12-16T08:54:28;92470.06;;;-147.26;94.92
23059;BME280;30585;51.502;7.218;2022-12-16T08:57:14;92459.88;;;-147.26;94.91
23059;BME280;30585;51.502;7.218;2022-12-16T08:59:59;92398.72;;;-147.26;95.18
23059;BME280;30585;51.502;7.218;2022-12-16T09:02:45;92457.81;;;-147.26;95.25
23059;BME280;30585;51.502;7.218;2022-12-16T09:05:31;92470.06;;;-147.26;95.34
23059;BME280;30585;51.502;7.218;2022-12-16T09:08:17;92339.66;;;-147.26;95.82
23059;BME280;30585;51.502;7.218;2022-12-16T09:11:02;92468.00;;;-147.26;95.84
23059;BME280;30585;51.502;7.218;2022-12-16T09:13:47;92421.16;;;-147.26;96.03
23059;BME280;30585;51.502;7.218;2022-12-16T09:16:33;92380.38;;;-147.26;96.20
23059;BME280;30585;51.502;7.218;2022-12-16T09:19:21;92392.63;;;-147.26;96.16
23059;BME280;30585;51.502;7.218;2022-12-16T09:22:06;92357.97;;;-147.26;96.46
23059;BME280;30585;51.502;7.218;2022-12-16T09:24:51;92404.84;;;-147.26;96.49
23059;BME280;30585;51.502;7.218;2022-12-16T09:27:37;92398.72;;;-147.26;96.61
23059;BME280;30585;51.502;7.218;2022-12-16T09:30:22;92313.16;;;-147.26;96.34
23059;BME280;30585;51.502;7.218;2022-12-16T09:33:20;92386.50;;;-147.26;96.38
23059;BME280;30585;51.502;7.218;2022-12-16T09:36:08;92388.53;;;-147.26;96.33
23059;BME280;30585;51.502;7.218;2022-12-16T09:38:52;92351.88;;;-147.26;96.15
23059;BME280;30585;51.502;7.218;2022-12-16T09:41:41;92343.72;;;-147.26;96.29
23059;BME280;30585;51.502;7.218;2022-12-16T09:44:37;92378.34;;;-147.26;96.13
23059;BME280;30585;51.502;7.218;2022-12-16T09:47:33;92355.94;;;-147.26;95.73
23059;BME280;30585;51.502;7.218;2022-12-16T09:50:24;92419.09;;;-147.26;95.55
23059;BME280;30585;51.502;7.218;2022-12-16T09:53:13;92364.09;;;-147.26;95.71
23059;BME280;30585;51.502;7.218;2022-12-16T09:56:00;92406.88;;;-147.26;95.75
23059;BME280;30585;51.502;7.218;2022-12-16T09:58:51;92368.16;;;-147.26;95.60
23059;BME280;30585;51.502;7.218;2022-12-16T10:01:39;92364.09;;;-147.26;95.20
23059;BME280;30585;51.502;7.218;2022-12-16T10:04:25;92327.41;;;-147.26;95.05
23059;BME280;30585;51.502;7.218;2022-12-16T10:07:14;92329.44;;;-147.26;94.91
23059;BME280;30585;51.502;7.218;2022-12-16T10:10:10;92351.88;;;-147.26;94.45
23059;BME280;30585;51.502;7.218;2022-12-16T10:13:06;92282.59;;;-147.26;94.30
23059;BME280;30585;51.502;7.218;2022-12-16T10:16:03;92360.03;;;-147.26;94.07
23059;BME280;30585;51.502;7.218;2022-12-16T10:18:55;92343.72;;;-147.26;93.64
23059;BME280;30585;51.502;7.218;2022-12-16T10:21:47;92339.66;;;-147.26;93.31
23059;BME280;30585;51.502;7.218;2022-12-16T10:24:44;92323.34;;;-147.26;93.16
23059;BME280;30585;51.502;7.218;2022-12-16T10:27:40;92237.75;;;-147.26;92.66
23059;BME280;30585;51.502;7.218;2022-12-16T10:30:28;92278.50;;;-147.26;91.94
23059;BME280;30585;51.502;7.218;2022-12-16T10:33:14;92309.06;;;-147.26;91.37
23059;BME280;30585;51.502;7.218;2022-12-16T10:36:00;92245.91;;;-147.26;91.84
23059;BME280;30585;51.502;7.218;2022-12-16T10:38:49;92323.34;;;-147.26;90.99
23059;BME280;30585;51.502;7.218;2022-12-16T10:41:37;92302.97;;;-147.26;89.93
23059;BME280;30585;51.502;7.218;2022-12-16T10:44:30;92254.06;;;-147.26;90.22
23059;BME280;30585;51.502;7.218;2022-12-16T10:47:18;92292.78;;;-147.26;90.39
23059;BME280;30585;51.502;7.218;2022-12-16T10:50:04;92298.88;;;-147.26;89.46
23059;BME280;30585;51.502;7.218;2022-12-16T10:52:54;92286.66;;;-147.26;89.86
23059;BME280;30585;51.502;7.218;2022-12-16T10:55:50;92233.69;;;-147.26;90.02
23059;BME280;30585;51.502;7.218;2022-12-16T10:58:43;92288.69;;;-147.26;89.44
23059;BME280;30585;51.502;7.218;2022-12-16T11:01:31;92268.31;;;-147.26;88.67
23059;BME280;30585;51.502;7.218;2022-12-16T11:04:35;92307.03;;;-147.26;88.45
23059;BME280;30585;51.502;7.218;2022-12-16T11:07:29;92290.75;;;-147.26;88.29
23059;BME280;30585;51.502;7.218;2022-12-16T11:10:33;92307.03;;;-147.26;88.38
23059;BME280;30585;51.502;7.218;2022-12-16T11:13:24;92211.28;;;-147.26;87.82
23059;BME280;30585;51.502;7.218;2022-12-16T11:16:12;92266.28;;;-147.26;86.48
23059;BME280;30585;51.502;7.218;2022-12-16T11:19:00;92292.78;;;-147.26;86.55
23059;BME280;30585;51.502;7.218;2022-12-16T11:21:46;92221.47;;;-147.26;85.88
23059;BME280;30585;51.502;7.218;2022-12-16T11:24:31;92215.34;;;-147.26;85.27
23059;BME280;30585;51.502;7.218;2022-12-16T11:27:22;92174.59;;;-147.26;84.88
23059;BME280;30585;51.502;7.218;2022-12-16T11:30:16;92233.69;;;-147.26;84.61
23059;BME280;30585;51.502;7.218;2022-12-16T11:33:09;92203.13;;;-147.26;84.37
23059;BME280;30585;51.502;7.218;2022-12-16T11:36:04;92243.88;;;-147.26;84.28
23059;BME280;30585;51.502;7.218;2022-12-16T11:38:51;92211.28;;;-147.26;84.01
23059;BME280;30585;51.502;7.218;2022-12-16T11:41:39;92205.16;;;-147.26;83.28
23059;BME280;30585;51.502;7.218;2022-12-16T11:44:29;92213.31;;;-147.26;83.70
23059;BME280;30585;51.502;7.218;2022-12-16T11:47:22;92211.28;;;-147.26;84.06
23059;BME280;30585;51.502;7.218;2022-12-16T11:50:13;92225.53;;;-147.26;83.34
23059;BME280;30585;51.502;7.218;2022-12-16T11:53:04;92190.91;;;-147.26;82.80
23059;BME280;30585;51.502;7.218;2022-12-16T11:55:52;92184.78;;;-147.26;82.23
23059;BME280;30585;51.502;7.218;2022-12-16T11:58:45;92225.53;;;-147.26;82.00
23059;BME280;30585;51.502;7.218;2022-12-16T12:01:33;92180.72;;;-147.26;81.68
23059;BME280;30585;51.502;7.218;2022-12-16T12:04:21;92213.31;;;-147.26;82.67
23059;BME280;30585;51.502;7.218;2022-12-16T12:07:20;92194.97;;;-147.26;82.63
23059;BME280;30585;51.502;7.218;2022-12-16T12:10:24;92164.41;;;-147.26;82.22
23059;BME280;30585;51.502;7.218;2022-12-16T12:13:24;92213.31;;;-147.26;80.56
23059;BME280;30585;51.502;7.218;2022-12-16T12:16:25;92166.44;;;-147.26;81.04
23059;BME280;30585;51.502;7.218;2022-12-16T12:19:17;92180.72;;;-147.26;82.98
23059;BME280;30585;51.502;7.218;2022-12-16T12:22:15;92115.50;;;-147.26;82.49
23059;BME280;30585;51.502;7.218;2022-12-16T12:25:09;92168.47;;;-147.26;80.79
23059;BME280;30585;51.502;7.218;2022-12-16T12:28:07;92123.66;;;-147.26;80.28
23059;BME280;30585;51.502;7.218;2022-12-16T12:31:04;92162.38;;;-147.26;80.55
23059;BME280;30585;51.502;7.218;2022-12-16T12:33:59;92156.25;;;-147.26;81.49
23059;BME280;30585;51.502;7.218;2022-12-16T12:36:53;92129.78;;;-147.26;79.80
23059;BME280;30585;51.502;7.218;2022-12-16T12:39:45;92123.66;;;-147.26;79.05
23059;BME280;30585;51.502;7.218;2022-12-16T12:42:35;92127.72;;;-147.26;78.63
23059;BME280;30585;51.502;7.218;2022-12-16T12:45:41;92164.41;;;-147.26;77.82
23059;BME280;30585;51.502;7.218;2022-12-16T12:48:34;92150.16;;;-147.26;78.79
23059;BME280;30585;51.502;7.218;2022-12-16T12:51:28;92107.38;;;-147.26;79.85
23059;BME280;30585;51.502;7.218;2022-12-16T12:54:21;92111.44;;;-147.26;78.17
23059;BME280;30585;51.502;7.218;2022-12-16T12:57:12;92119.59;;;-147.26;77.90
23059;BME280;30585;51.502;7.218;2022-12-16T13:00:02;92111.44;;;-147.26;77.44
23059;BME280;30585;51.502;7.218;2022-12-16T13:02:53;92066.63;;;-147.26;77.27
23059;BME280;30585;51.502;7.218;2022-12-16T13:05:44;92139.97;;;-147.26;77.46
23059;BME280;30585;51.502;7.218;2022-12-16T13:08:41;92109.41;;;-147.26;77.49
23059;BME280;30585;51.502;7.218;2022-12-16T13:11:27;92164.41;;;-147.26;77.27
23059;BME280;30585;51.502;7.218;2022-12-16T13:14:52;92235.72;;;-147.26;77.97
23059;BME280;30585;51.502;7.218;2022-12-16T13:18:18;92178.66;;;-147.26;76.82
23059;BME280;30585;51.502;7.218;2022-12-16T13:21:43;92192.94;;;-147.26;77.33
23059;BME280;30585;51.502;7.218;2022-12-16T13:24:41;92205.16;;;-147.26;77.71
23059;BME280;30585;51.502;7.218;2022-12-16T13:27:27;92199.06;;;-147.26;78.74
23059;BME280;30585;51.502;7.218;2022-12-16T13:30:19;92194.97;;;-147.26;79.89
23059;BME280;30585;51.502;7.218;2022-12-16T13:33:19;92201.09;;;-147.26;78.49
23059;BME280;30585;51.502;7.218;2022-12-16T13:36:08;92184.78;;;-147.26;78.86
23059;BME280;30585;51.502;7.218;2022-12-16T13:38:56;92199.06;;;-147.26;79.46
23059;BME280;30585;51.502;7.218;2022-12-16T13:41:50;92205.16;;;-147.26;78.92
23059;BME280;30585;51.502;7.218;2022-12-16T13:44:56;92247.94;;;-147.26;78.27
23059;BME280;30585;51.502;7.218;2022-12-16T13:48:02;92215.34;;;-147.26;78.96
23059;BME280;30585;51.502;7.218;2022-12-16T13:50:49;92211.28;;;-147.26;79.07
23059;BME280;30585;51.502;7.218;2022-12-16T13:53:47;92231.66;;;-147.26;78.29
23059;BME280;30585;51.502;7.218;2022-12-16T13:56:36;92178.66;;;-147.26;79.38
23059;BME280;30585;51.502;7.218;2022-12-16T13:59:25;92243.88;;;-147.26;78.91
23059;BME280;30585;51.502;7.218;2022-12-16T14:02:18;92223.50;;;-147.26;79.36
23059;BME280;30585;51.502;7.218;2022-12-16T14:05:13;92266.28;;;-147.26;79.97
23059;BME280;30585;51.502;7.218;2022-12-16T14:08:04;92115.50;;;-147.26;80.38
23059;BME280;30585;51.502;7.218;2022-12-16T14:10:58;92150.16;;;-147.26;81.01
23059;BME280;30585;51.502;7.218;2022-12-16T14:13:49;92294.81;;;-147.26;81.26